Time;durP1;ratioP1;P1;durP2;ratioP2;P2;SDS_P1;SDS_P2;PMS_P1;PMS_P2;Temp;Humidity;BMP_temperature;BMP_pressure;BME280_temperature;BME280_humidity;BME280_pressure;Samples;Min_cycle;Max_cycle;Signal;HPM_P1;HPM_P2
2022/01/13 00:01:19;;;;;;;32.53;17.10;;;;;;;-2.70;98.63;96071.78;5089106;28;20667;-74
2022/01/13 00:03:48;;;;;;;36.30;17.07;;;;;;;-2.60;98.80;96072.81;5088522;28;20584;-76
2022/01/13 00:06:17;;;;;;;37.97;17.63;;;;;;;-2.54;97.63;96073.19;5089164;28;20285;-74
2022/01/13 00:08:46;;;;;;;37.00;17.80;;;;;;;-2.66;97.71;96086.75;5088728;28;20200;-75
2022/01/13 00:11:21;;;;;;;36.87;17.47;;;;;;;-2.82;97.86;96070.84;5087700;28;20694;-75
2022/01/13 00:13:52;;;;;;;32.90;16.67;;;;;;;-2.74;97.77;96098.34;5084963;28;20216;-74
2022/01/13 00:16:39;;;;;;;37.20;18.17;;;;;;;-2.63;97.38;96094.19;5083146;28;20200;-74
2022/01/13 00:19:19;;;;;;;35.20;16.10;;;;;;;-2.74;96.91;96096.59;5088850;28;20193;-74
2022/01/13 00:21:56;;;;;;;39.93;17.57;;;;;;;-2.91;97.20;96096.91;5088535;28;20224;-74
2022/01/13 00:24:24;;;;;;;31.50;15.23;;;;;;;-3.11;97.76;96099.91;5087987;28;20618;-74
2022/01/13 00:26:54;;;;;;;36.20;16.93;;;;;;;-3.13;98.63;96104.28;5087982;28;20281;-76
2022/01/13 00:29:28;;;;;;;34.90;16.73;;;;;;;-3.13;98.47;96099.22;5087984;28;20272;-74
2022/01/13 00:31:56;;;;;;;31.67;16.63;;;;;;;-3.17;98.61;96101.13;5088928;28;20300;-75
2022/01/13 00:34:24;;;;;;;40.63;18.80;;;;;;;-3.15;98.41;96106.94;5088068;28;20254;-74
2022/01/13 00:36:54;;;;;;;41.43;18.50;;;;;;;-3.24;98.44;96112.63;5088366;28;20207;-74
2022/01/13 00:39:22;;;;;;;37.07;18.33;;;;;;;-3.26;98.61;96111.88;5088290;28;20713;-75
2022/01/13 00:41:50;;;;;;;42.57;17.77;;;;;;;-3.43;99.61;96108.81;5088297;28;20250;-75
2022/01/13 00:44:20;;;;;;;35.57;16.70;;;;;;;-3.50;100.00;96108.38;5088607;28;20209;-74
2022/01/13 00:46:54;;;;;;;39.87;17.57;;;;;;;-3.55;100.00;96110.41;5088122;28;20212;-74
2022/01/13 00:49:23;;;;;;;38.23;17.70;;;;;;;-3.51;100.00;96117.72;5088397;28;20204;-74
2022/01/13 00:51:52;;;;;;;37.53;17.50;;;;;;;-3.47;100.00;96111.53;5087576;28;20293;-75
2022/01/13 00:54:20;;;;;;;42.00;17.97;;;;;;;-3.49;100.00;96128.59;5087603;28;20730;-75
2022/01/13 00:56:49;;;;;;;38.77;17.80;;;;;;;-3.50;100.00;96128.69;5088168;28;20258;-75
2022/01/13 00:59:17;;;;;;;37.90;17.83;;;;;;;-3.52;100.00;96128.78;5087431;28;20206;-75
2022/01/13 01:01:49;;;;;;;40.03;18.17;;;;;;;-3.49;100.00;96118.44;5088037;28;20192;-74
2022/01/13 01:04:19;;;;;;;39.57;17.67;;;;;;;-3.51;100.00;96127.88;5081152;28;20203;-74
2022/01/13 01:06:49;;;;;;;38.00;17.83;;;;;;;-3.65;100.00;96125.38;5087482;28;20398;-74
2022/01/13 01:09:27;;;;;;;40.37;19.00;;;;;;;-3.63;100.00;96126.09;5088692;28;20211;-74
2022/01/13 01:11:56;;;;;;;37.67;17.40;;;;;;;-3.67;100.00;96131.47;5087424;28;20208;-75
2022/01/13 01:14:26;;;;;;;41.07;18.07;;;;;;;-3.61;100.00;96136.19;5087036;28;20880;-74
2022/01/13 01:16:53;;;;;;;40.10;16.63;;;;;;;-3.74;100.00;96135.28;5088020;28;20196;-74
2022/01/13 01:19:27;;;;;;;38.63;16.80;;;;;;;-3.89;100.00;96141.31;5088369;28;20236;-75
2022/01/13 01:22:18;;;;;;;41.07;19.43;;;;;;;-3.87;100.00;96152.19;5088223;28;20193;-75
2022/01/13 01:27:35;;;;;;;38.27;17.03;;;;;;;-3.69;100.00;96143.44;5087490;28;20200;-74
2022/01/13 01:30:10;;;;;;;37.40;17.07;;;;;;;-3.77;100.00;96140.56;5087179;28;20243;-74
2022/01/13 01:32:40;;;;;;;37.37;17.40;;;;;;;-3.95;100.00;96136.63;5086784;28;20718;-73
2022/01/13 01:35:15;;;;;;;41.37;17.67;;;;;;;-4.06;100.00;96143.16;5088397;28;20200;-73
2022/01/13 01:37:45;;;;;;;41.60;19.20;;;;;;;-4.05;100.00;96126.22;5088206;28;20240;-74
2022/01/13 01:40:16;;;;;;;44.13;19.57;;;;;;;-4.01;100.00;96142.84;5087111;28;20644;-74
2022/01/13 01:42:46;;;;;;;43.23;18.53;;;;;;;-4.13;100.00;96134.25;5086596;28;20201;-74
2022/01/13 01:45:15;;;;;;;38.73;18.93;;;;;;;-3.96;100.00;96151.03;5087302;28;20193;-74
2022/01/13 01:47:44;;;;;;;38.30;16.77;;;;;;;-3.87;100.00;96145.41;5087977;28;20200;-75
2022/01/13 01:50:20;;;;;;;39.07;17.50;;;;;;;-3.90;100.00;96148.13;5087379;28;20554;-75
2022/01/13 01:52:50;;;;;;;44.20;18.63;;;;;;;-3.97;100.00;96144.31;5091074;28;20231;-75
2022/01/13 01:55:21;;;;;;;39.67;17.97;;;;;;;-3.87;100.00;96139.50;5091597;28;20204;-74
2022/01/13 01:57:52;;;;;;;40.83;17.83;;;;;;;-3.87;99.54;96132.72;5090812;28;20200;-75
2022/01/13 02:00:24;;;;;;;37.40;17.53;;;;;;;-3.86;99.66;96136.84;5091357;28;20204;-74
2022/01/13 02:02:55;;;;;;;39.40;17.50;;;;;;;-3.80;99.10;96130.59;5091411;28;20207;-74
2022/01/13 02:05:23;;;;;;;37.03;16.93;;;;;;;-3.80;98.40;96135.66;5091240;28;20290;-74
2022/01/13 02:07:51;;;;;;;38.27;17.37;;;;;;;-3.90;98.74;96121.91;5091439;28;20227;-75
2022/01/13 02:10:22;;;;;;;40.43;18.13;;;;;;;-3.95;99.12;96114.56;5091171;28;20205;-74
2022/01/13 02:13:00;;;;;;;40.63;17.93;;;;;;;-3.87;98.78;96126.81;5091566;28;20224;-75
2022/01/13 02:15:32;;;;;;;36.93;17.13;;;;;;;-3.83;97.60;96130.78;5091213;28;20211;-75
2022/01/13 02:18:04;;;;;;;39.83;18.33;;;;;;;-3.73;97.38;96132.66;5086440;28;20217;-74
2022/01/13 02:20:48;;;;;;;42.07;17.63;;;;;;;-3.86;97.75;96138.56;5089313;28;20219;-71
2022/01/13 02:23:29;;;;;;;40.83;17.83;;;;;;;-3.96;98.82;96142.59;5090433;28;20196;-70
2022/01/13 02:25:57;;;;;;;43.03;18.27;;;;;;;-3.99;98.26;96140.25;5091591;28;20208;-75
2022/01/13 02:28:26;;;;;;;36.77;17.57;;;;;;;-4.02;99.38;96124.31;5084736;28;20196;-74
2022/01/13 02:30:53;;;;;;;42.00;17.90;;;;;;;-3.88;98.69;96133.59;5090160;28;20667;-74
2022/01/13 02:33:21;;;;;;;36.97;17.03;;;;;;;-3.83;97.62;96128.22;5090558;28;20253;-75
2022/01/13 02:35:51;;;;;;;38.93;17.90;;;;;;;-3.76;96.62;96139.66;5090854;28;20204;-78
2022/01/13 02:38:19;;;;;;;41.10;18.33;;;;;;;-3.81;97.43;96139.91;5090982;28;20667;-74
2022/01/13 02:40:55;;;;;;;41.97;18.83;;;;;;;-3.84;97.83;96139.31;5090567;28;20211;-74
2022/01/13 02:43:25;;;;;;;39.23;18.20;;;;;;;-3.95;97.34;96146.78;5090427;28;20234;-74
2022/01/13 02:46:07;;;;;;;38.50;17.37;;;;;;;-4.15;98.23;96148.78;5090396;28;20196;-76
2022/01/13 02:48:35;;;;;;;37.20;17.80;;;;;;;-4.22;98.47;96134.84;5089780;28;20197;-75
2022/01/13 02:51:05;;;;;;;35.23;17.20;;;;;;;-4.16;98.22;96142.09;5091548;28;20311;-75
2022/01/13 02:53:33;;;;;;;42.27;18.03;;;;;;;-4.16;97.94;96147.16;5090355;28;20239;-75
2022/01/13 02:56:07;;;;;;;33.07;16.23;;;;;;;-4.05;96.94;96138.91;5083574;28;20207;-74
2022/01/13 02:58:36;;;;;;;40.27;16.63;;;;;;;-4.07;97.10;96138.19;5090030;28;20207;-74
2022/01/13 03:01:05;;;;;;;41.93;18.27;;;;;;;-4.16;96.99;96129.41;5090742;28;20268;-76
2022/01/13 03:03:35;;;;;;;37.30;16.57;;;;;;;-4.11;96.65;96129.13;5090492;28;20205;-76
2022/01/13 03:06:08;;;;;;;34.57;16.83;;;;;;;-4.21;96.12;96125.47;5089762;28;20204;-74
2022/01/13 03:08:36;;;;;;;37.27;17.07;;;;;;;-4.17;96.65;96132.00;5089471;28;20204;-74
2022/01/13 03:11:05;;;;;;;35.80;16.20;;;;;;;-4.30;97.12;96120.97;5089511;28;20209;-74
2022/01/13 03:13:33;;;;;;;37.93;16.43;;;;;;;-4.27;97.46;96124.13;5090054;28;20221;-74
2022/01/13 03:16:06;;;;;;;37.03;16.60;;;;;;;-4.32;96.38;96108.38;5090017;28;20201;-74
2022/01/13 03:18:34;;;;;;;36.13;16.43;;;;;;;-4.35;97.39;96120.41;5089409;28;20208;-75
2022/01/13 03:21:01;;;;;;;35.27;15.63;;;;;;;-4.35;97.02;96128.84;5090215;28;20200;-74
2022/01/13 03:23:32;;;;;;;38.70;17.30;;;;;;;-4.29;96.80;96136.09;5089224;28;20620;-75
2022/01/13 03:25:59;;;;;;;40.00;18.10;;;;;;;-4.25;96.19;96134.22;5090817;28;20321;-74
2022/01/13 03:28:31;;;;;;;39.40;17.83;;;;;;;-4.23;95.76;96135.75;5089486;28;20610;-74
2022/01/13 03:31:01;;;;;;;37.63;17.07;;;;;;;-4.36;96.58;96134.03;5089836;28;20203;-74
2022/01/13 03:33:30;;;;;;;37.30;16.60;;;;;;;-4.45;96.60;96137.09;5089975;28;20234;-75
2022/01/13 03:35:59;;;;;;;37.87;17.20;;;;;;;-4.42;96.51;96130.13;5085799;28;20205;-74
2022/01/13 03:38:27;;;;;;;36.17;15.43;;;;;;;-4.56;96.20;96142.00;5087952;28;20287;-74
2022/01/13 03:40:57;;;;;;;34.97;15.63;;;;;;;-4.63;96.55;96139.00;5089671;28;20207;-75
2022/01/13 03:43:26;;;;;;;34.87;16.23;;;;;;;-4.66;96.88;96142.53;5089324;28;20224;-73
2022/01/13 03:45:55;;;;;;;31.80;15.40;;;;;;;-4.54;96.37;96140.19;5089921;28;20207;-74
2022/01/13 03:48:23;;;;;;;37.40;16.57;;;;;;;-4.43;95.45;96137.81;5089034;28;20292;-74
2022/01/13 03:50:51;;;;;;;30.53;15.43;;;;;;;-4.52;95.24;96144.25;5089544;28;20631;-73
2022/01/13 03:54:07;;;;;;;33.10;16.00;;;;;;;-4.49;95.24;96145.78;5089351;28;20616;-74
2022/01/13 03:57:27;;;;;;;29.67;13.53;;;;;;;-4.47;94.23;96138.94;5088823;28;20207;-76
2022/01/13 04:00:48;;;;;;;31.47;14.63;;;;;;;-4.65;94.94;96141.59;5089630;28;20232;-74
2022/01/13 04:03:17;;;;;;;36.83;15.33;;;;;;;-4.69;94.14;96140.16;5008580;28;20230;-76
2022/01/13 04:06:09;;;;;;;30.67;14.07;;;;;;;-4.81;94.59;96151.00;5007309;28;20299;-74
2022/01/13 04:08:37;;;;;;;29.37;14.03;;;;;;;-4.94;95.35;96152.63;5054575;28;20291;-74
2022/01/13 04:11:20;;;;;;;32.07;14.63;;;;;;;-4.90;96.17;96159.13;5081323;28;20198;-76
2022/01/13 04:13:56;;;;;;;31.77;15.60;;;;;;;-4.90;96.27;96164.19;5081894;28;20232;-75
2022/01/13 04:16:27;;;;;;;34.13;16.37;;;;;;;-4.76;95.95;96171.03;5089210;28;20204;-74
2022/01/13 04:18:58;;;;;;;36.73;15.27;;;;;;;-4.73;95.30;96168.31;5088859;28;20207;-75
2022/01/13 04:21:26;;;;;;;32.33;14.50;;;;;;;-4.73;95.42;96174.19;5088656;28;20201;-75
2022/01/13 04:23:57;;;;;;;33.37;14.47;;;;;;;-4.75;95.12;96176.00;5082335;28;20220;-75
2022/01/13 04:26:28;;;;;;;32.63;14.00;;;;;;;-4.69;94.47;96180.72;5088590;28;20317;-75
2022/01/13 04:29:04;;;;;;;28.57;14.00;;;;;;;-4.71;94.50;96180.00;5083115;28;20237;-74
2022/01/13 04:31:33;;;;;;;33.80;14.17;;;;;;;-4.69;94.07;96190.88;5082037;28;20196;-75
2022/01/13 04:34:00;;;;;;;35.60;14.77;;;;;;;-4.67;93.48;96194.13;5088179;28;20655;-74
2022/01/13 04:36:28;;;;;;;35.33;14.77;;;;;;;-4.71;93.62;96189.34;5087718;28;20243;-74
2022/01/13 04:38:56;;;;;;;35.03;15.17;;;;;;;-4.79;93.98;96188.97;5088878;28;20212;-74
2022/01/13 04:41:32;;;;;;;31.83;14.73;;;;;;;-4.74;93.80;96187.78;5088409;28;20524;-75
2022/01/13 04:44:03;;;;;;;32.03;14.17;;;;;;;-4.75;93.23;96177.72;5085881;28;20259;-75
2022/01/13 04:46:31;;;;;;;27.10;13.67;;;;;;;-4.78;93.07;96170.28;5086990;28;20200;-74
2022/01/13 04:48:59;;;;;;;27.30;13.17;;;;;;;-4.80;93.50;96167.88;5087576;28;20303;-75
2022/01/13 04:51:27;;;;;;;31.67;14.57;;;;;;;-4.84;93.99;96171.47;5088488;28;20197;-75
2022/01/13 04:53:55;;;;;;;25.67;12.57;;;;;;;-4.74;92.90;96170.06;5088121;28;20331;-74
2022/01/13 04:56:29;;;;;;;30.00;14.47;;;;;;;-4.91;92.96;96164.31;5087356;28;20235;-74
2022/01/13 04:58:57;;;;;;;29.00;13.30;;;;;;;-4.82;93.31;96174.72;5086893;28;20192;-75
2022/01/13 05:01:27;;;;;;;28.90;14.00;;;;;;;-4.71;92.33;96180.00;5086538;28;20216;-74
2022/01/13 05:03:55;;;;;;;26.70;13.13;;;;;;;-4.74;91.92;96166.69;5088707;28;20307;-74
2022/01/13 05:06:23;;;;;;;32.30;13.70;;;;;;;-4.78;91.82;96172.84;5087601;28;20209;-75
2022/01/13 05:08:53;;;;;;;25.97;12.80;;;;;;;-4.79;92.15;96182.16;5087851;28;20203;-75
2022/01/13 05:11:21;;;;;;;29.77;13.97;;;;;;;-4.86;91.87;96185.13;5087642;28;20241;-75
2022/01/13 05:13:49;;;;;;;30.70;13.10;;;;;;;-4.91;91.58;96193.00;5086800;28;20193;-74
2022/01/13 05:16:22;;;;;;;31.93;13.70;;;;;;;-4.88;92.39;96199.63;5085834;28;20651;-76
2022/01/13 05:18:56;;;;;;;27.60;13.50;;;;;;;-4.81;91.95;96198.34;5085813;28;20227;-75
2022/01/13 05:21:44;;;;;;;28.30;13.00;;;;;;;-4.87;90.75;96191.09;5086033;28;20250;-75
2022/01/13 05:24:11;;;;;;;31.47;12.57;;;;;;;-4.85;90.36;96200.22;5083197;28;20224;-75
2022/01/13 05:26:39;;;;;;;27.37;13.17;;;;;;;-4.84;90.59;96184.13;5085349;28;20196;-71
2022/01/13 05:29:07;;;;;;;26.67;12.87;;;;;;;-4.72;90.72;96207.97;5086189;28;20313;-71
2022/01/13 05:31:35;;;;;;;27.60;12.93;;;;;;;-4.70;90.29;96206.97;5087336;28;20319;-71
2022/01/13 05:34:04;;;;;;;25.97;12.33;;;;;;;-4.74;89.41;96208.06;5085297;28;20243;-71
2022/01/13 05:36:31;;;;;;;27.67;12.90;;;;;;;-4.75;90.29;96210.69;5086692;28;20212;-73
2022/01/13 05:38:59;;;;;;;27.90;12.97;;;;;;;-4.83;89.81;96216.19;5088069;28;20211;-72
2022/01/13 05:41:26;;;;;;;27.00;12.50;;;;;;;-4.82;90.14;96217.03;5081529;28;20690;-71
2022/01/13 05:43:54;;;;;;;23.57;11.83;;;;;;;-4.82;89.67;96222.88;5085239;28;20776;-71
2022/01/13 05:46:21;;;;;;;30.87;12.13;;;;;;;-4.76;89.59;96219.22;5085836;28;20208;-71
2022/01/13 05:48:50;;;;;;;32.83;13.73;;;;;;;-4.80;89.29;96230.41;5086389;28;20205;-71
2022/01/13 05:51:20;;;;;;;28.07;13.20;;;;;;;-4.87;89.54;96217.25;5087031;28;20200;-71
2022/01/13 05:53:48;;;;;;;26.30;12.83;;;;;;;-4.73;89.00;96224.91;5086569;28;20197;-71
2022/01/13 05:56:16;;;;;;;30.47;13.73;;;;;;;-4.80;89.90;96223.63;5086050;28;20259;-71
2022/01/13 05:58:46;;;;;;;31.80;13.47;;;;;;;-4.85;90.68;96217.97;5086760;28;20209;-71
2022/01/13 06:01:14;;;;;;;31.90;13.20;;;;;;;-4.95;91.60;96229.53;5087965;28;20253;-70
2022/01/13 06:03:42;;;;;;;30.37;14.40;;;;;;;-4.98;91.32;96231.44;5087284;28;20281;-72
2022/01/13 06:06:11;;;;;;;31.30;13.67;;;;;;;-4.89;91.47;96236.00;5086931;28;20703;-72
2022/01/13 06:08:40;;;;;;;29.00;14.03;;;;;;;-4.89;91.82;96230.91;5086847;28;20684;-77
2022/01/13 06:11:09;;;;;;;33.50;14.30;;;;;;;-4.98;91.63;96233.97;5087094;28;20205;-71
2022/01/13 06:13:37;;;;;;;29.80;13.70;;;;;;;-5.00;91.40;96240.84;5081245;28;20197;-71
2022/01/13 06:16:05;;;;;;;35.53;14.57;;;;;;;-5.08;92.22;96241.28;5085973;28;20201;-71
2022/01/13 06:18:34;;;;;;;30.60;15.00;;;;;;;-5.03;92.81;96243.53;5086191;28;20240;-72
2022/01/13 06:21:02;;;;;;;38.07;16.77;;;;;;;-4.98;91.94;96255.06;5086501;28;20200;-72
2022/01/13 06:23:32;;;;;;;38.30;15.60;;;;;;;-4.85;92.11;96252.66;5084299;28;20220;-71
2022/01/13 06:26:04;;;;;;;29.27;13.47;;;;;;;-4.83;91.04;96244.06;5087567;28;20236;-72
2022/01/13 06:28:31;;;;;;;30.77;13.13;;;;;;;-4.91;89.93;96261.44;5086509;28;20215;-72
2022/01/13 06:30:59;;;;;;;35.50;13.73;;;;;;;-4.91;89.91;96258.91;5086755;28;20208;-72
2022/01/13 06:33:26;;;;;;;27.03;12.60;;;;;;;-4.92;89.58;96264.03;5086749;28;20242;-72
2022/01/13 06:35:55;;;;;;;30.77;13.43;;;;;;;-4.88;89.79;96258.72;5087797;28;20203;-72
2022/01/13 06:38:24;;;;;;;29.23;13.03;;;;;;;-4.92;89.07;96258.97;5089649;28;20212;-72
2022/01/13 06:40:54;;;;;;;31.10;14.03;;;;;;;-4.94;88.78;96271.75;5090797;28;20215;-71
2022/01/13 06:43:25;;;;;;;25.27;12.40;;;;;;;-5.10;89.11;96282.78;5090201;28;20217;-71
2022/01/13 06:45:52;;;;;;;31.40;14.03;;;;;;;-5.13;89.46;96276.16;5090309;28;20286;-72
2022/01/13 06:48:21;;;;;;;31.77;14.37;;;;;;;-5.12;88.33;96282.88;5089748;28;20208;-72
2022/01/13 06:50:50;;;;;;;28.63;13.60;;;;;;;-5.14;88.03;96283.84;5090001;28;20204;-72
2022/01/13 06:53:20;;;;;;;32.73;14.13;;;;;;;-5.18;88.92;96278.94;5089598;28;20196;-72
2022/01/13 06:55:47;;;;;;;34.43;14.90;;;;;;;-5.08;88.00;96298.72;5090059;28;20648;-70
2022/01/13 06:58:16;;;;;;;30.13;13.63;;;;;;;-5.02;87.14;96308.53;5089722;28;20204;-71
2022/01/13 07:00:46;;;;;;;28.83;13.37;;;;;;;-5.02;86.57;96309.31;5090468;28;20201;-71
2022/01/13 07:03:14;;;;;;;30.70;13.83;;;;;;;-4.95;86.28;96297.16;5089630;28;20212;-71
2022/01/13 07:05:42;;;;;;;32.87;15.27;;;;;;;-4.92;86.25;96313.00;5090406;28;20209;-72
2022/01/13 07:08:11;;;;;;;26.30;12.30;;;;;;;-4.98;85.98;96317.59;5089787;28;20215;-72
2022/01/13 07:10:41;;;;;;;25.30;11.73;;;;;;;-5.17;86.31;96315.25;5090672;28;20209;-72
2022/01/13 07:13:10;;;;;;;23.43;11.40;;;;;;;-5.23;86.51;96331.59;5089456;28;20201;-72
2022/01/13 07:15:39;;;;;;;25.13;12.50;;;;;;;-5.20;87.22;96325.53;5090134;28;20211;-73
2022/01/13 07:18:09;;;;;;;26.97;13.07;;;;;;;-5.08;87.48;96319.81;5089489;28;20200;-73
2022/01/13 07:20:39;;;;;;;31.60;14.17;;;;;;;-5.03;86.25;96319.56;5089580;28;20849;-72
2022/01/13 07:23:08;;;;;;;26.77;13.00;;;;;;;-5.12;86.40;96318.34;5090060;28;20973;-73
2022/01/13 07:25:36;;;;;;;34.83;13.03;;;;;;;-5.17;86.56;96328.72;5089503;28;20287;-74
2022/01/13 07:28:05;;;;;;;25.77;11.53;;;;;;;-5.32;86.13;96329.53;5084527;28;20188;-72
2022/01/13 07:30:33;;;;;;;27.73;12.83;;;;;;;-5.41;87.73;96322.41;5083180;28;20240;-72
2022/01/13 07:33:01;;;;;;;28.10;11.17;;;;;;;-5.29;87.74;96321.78;5089205;28;20240;-71
2022/01/13 07:35:30;;;;;;;24.57;11.87;;;;;;;-5.23;86.50;96316.38;5089535;28;20196;-73
2022/01/13 07:37:58;;;;;;;29.00;13.33;;;;;;;-5.13;87.20;96329.34;5089539;28;20258;-71
2022/01/13 07:40:26;;;;;;;30.50;13.43;;;;;;;-5.12;86.82;96340.31;5089463;28;20208;-70
2022/01/13 07:42:55;;;;;;;31.27;13.63;;;;;;;-5.02;87.18;96333.88;5088815;28;20204;-72
2022/01/13 07:45:23;;;;;;;30.73;14.33;;;;;;;-4.94;86.09;96339.34;5090096;28;20208;-72
2022/01/13 07:47:50;;;;;;;28.80;12.13;;;;;;;-5.07;84.84;96351.84;5089361;28;20655;-83
2022/01/13 07:50:18;;;;;;;24.07;12.07;;;;;;;-5.20;84.50;96349.16;5089696;28;20204;-83
2022/01/13 07:52:49;;;;;;;28.77;13.50;;;;;;;-5.21;85.23;96357.66;5090256;28;20212;-83
2022/01/13 07:55:16;;;;;;;29.10;12.53;;;;;;;-5.25;85.82;96362.94;5091245;28;20393;-89
2022/01/13 07:57:44;;;;;;;28.20;11.53;;;;;;;-5.33;85.49;96367.59;5091765;28;20204;-91
2022/01/13 08:00:13;;;;;;;18.20;8.97;;;;;;;-5.42;85.99;96360.47;5084569;28;20212;-89
2022/01/13 08:02:45;;;;;;;33.83;14.23;;;;;;;-5.23;85.60;96371.28;5091157;28;20295;-80
2022/01/13 08:05:14;;;;;;;29.67;12.93;;;;;;;-5.24;88.05;96369.66;5090451;28;20224;-79
2022/01/13 08:07:42;;;;;;;26.43;12.23;;;;;;;-5.05;86.41;96377.13;5090583;28;20212;-81
2022/01/13 08:10:27;;;;;;;27.67;12.53;;;;;;;-4.92;84.55;96383.16;5086142;28;20243;-79
2022/01/13 08:13:02;;;;;;;28.07;12.53;;;;;;;-4.91;83.25;96395.75;5089031;28;20204;-84
2022/01/13 08:15:35;;;;;;;34.53;13.50;;;;;;;-4.96;82.69;96371.56;5084735;28;20201;-81
2022/01/13 08:20:54;;;;;;;33.50;13.77;;;;;;;-5.09;82.07;96368.03;5092034;28;20584;-80
2022/01/13 08:23:23;;;;;;;33.27;12.73;;;;;;;-5.13;81.37;96399.47;5089912;28;20295;-79
2022/01/13 08:25:58;;;;;;;29.43;13.17;;;;;;;-5.11;82.83;96410.38;5082227;28;20209;-78
2022/01/13 08:28:31;;;;;;;30.07;13.03;;;;;;;-5.00;82.72;96413.97;5086885;28;20200;-76
2022/01/13 08:31:21;;;;;;;27.07;12.57;;;;;;;-4.95;81.03;96409.47;5051045;28;20205;-80
2022/01/13 08:33:59;;;;;;;28.40;12.33;;;;;;;-4.92;80.82;96427.06;5047232;28;20249;-79
2022/01/13 08:36:30;;;;;;;30.73;12.40;;;;;;;-5.13;81.74;96418.03;5044300;28;20201;-79
2022/01/13 08:38:59;;;;;;;26.93;12.50;;;;;;;-5.31;81.86;96374.19;5046682;28;20203;-79
2022/01/13 08:41:35;;;;;;;27.30;11.97;;;;;;;-5.42;81.44;96363.81;5043655;28;20206;-80
2022/01/13 08:44:04;;;;;;;24.67;11.67;;;;;;;-5.18;80.90;96417.47;5043922;28;20225;-79
2022/01/13 08:46:32;;;;;;;25.23;11.97;;;;;;;-5.07;81.05;96422.78;5047772;28;20233;-79
2022/01/13 08:49:00;;;;;;;25.87;13.20;;;;;;;-4.99;80.26;96420.66;5048733;28;20206;-78
2022/01/13 08:51:28;;;;;;;33.40;13.87;;;;;;;-4.77;79.65;96422.91;5047758;28;20210;-78
2022/01/13 08:53:56;;;;;;;26.23;11.63;;;;;;;-4.65;78.75;96425.59;5041463;28;20281;-80
2022/01/13 08:56:25;;;;;;;33.53;13.13;;;;;;;-4.95;79.94;96419.63;5047907;28;20645;-80
2022/01/13 08:58:54;;;;;;;29.43;13.10;;;;;;;-5.01;80.59;96417.41;5047964;28;20210;-78
2022/01/13 09:01:22;;;;;;;22.93;12.13;;;;;;;-4.83;80.42;96420.69;5047345;28;20221;-80
2022/01/13 09:03:50;;;;;;;26.13;12.83;;;;;;;-4.95;79.71;96412.00;5047606;28;20222;-86
2022/01/13 09:06:19;;;;;;;25.23;12.60;;;;;;;-4.79;80.22;96412.03;5047625;28;20202;-76
2022/01/13 09:08:46;;;;;;;28.00;9.23;;;;;;;-4.75;79.77;96411.78;5047367;28;20217;-78
2022/01/13 09:11:13;;;;;;;25.67;12.43;;;;;;;-4.90;79.84;96411.75;5047873;28;20665;-77
2022/01/13 09:13:40;;;;;;;33.27;14.73;;;;;;;-4.73;80.48;96420.13;5047307;28;20293;-80
2022/01/13 09:16:16;;;;;;;27.13;12.87;;;;;;;-4.67;79.45;96414.72;5046546;28;20197;-79
2022/01/13 09:19:07;;;;;;;23.80;12.37;;;;;;;-4.82;80.25;96418.06;5047076;28;20202;-80
2022/01/13 09:21:37;;;;;;;25.00;11.43;;;;;;;-4.96;80.08;96407.03;5046425;28;20197;-81
2022/01/13 09:24:12;;;;;;;29.83;15.00;;;;;;;-4.88;79.81;96393.06;5048783;28;20653;-82
2022/01/13 09:26:40;;;;;;;32.77;12.90;;;;;;;-4.85;80.21;96381.94;5048683;28;20205;-81
2022/01/13 09:29:09;;;;;;;22.70;10.63;;;;;;;-4.99;80.04;96380.13;5056564;28;20229;-81
2022/01/13 09:31:40;;;;;;;24.20;10.73;;;;;;;-5.20;80.21;96378.72;5089036;28;20197;-83
2022/01/13 09:34:09;;;;;;;28.67;11.57;;;;;;;-5.36;81.17;96355.09;5088797;28;20203;-81
2022/01/13 09:36:36;;;;;;;24.73;11.30;;;;;;;-4.99;81.41;96374.25;5087813;28;20232;-80
2022/01/13 09:39:06;;;;;;;33.30;15.40;;;;;;;-4.66;79.87;96370.72;5091812;28;20197;-83
2022/01/13 09:41:34;;;;;;;26.93;11.40;;;;;;;-4.38;79.28;96361.59;5087117;28;20208;-80
2022/01/13 09:44:05;;;;;;;29.17;13.57;;;;;;;-4.38;78.92;96364.94;5087771;28;20794;-81
2022/01/13 09:46:34;;;;;;;27.83;12.87;;;;;;;-4.25;78.74;96363.38;5088345;28;20208;-81
2022/01/13 09:49:06;;;;;;;26.47;12.80;;;;;;;-4.32;79.84;96359.53;5089313;28;20433;-82
2022/01/13 09:51:35;;;;;;;27.50;13.60;;;;;;;-4.45;79.87;96342.56;5088686;28;20192;-82
2022/01/13 09:54:04;;;;;;;26.80;12.57;;;;;;;-4.31;78.60;96366.25;5088987;28;20197;-82
2022/01/13 09:56:35;;;;;;;28.17;12.83;;;;;;;-4.36;78.58;96325.09;5088128;28;20212;-82
2022/01/13 09:59:18;;;;;;;23.60;11.10;;;;;;;-4.37;78.97;96325.19;5089674;28;20197;-81
2022/01/13 10:01:45;;;;;;;29.13;13.10;;;;;;;-4.25;79.57;96314.34;5091917;28;20249;-80
2022/01/13 10:04:16;;;;;;;38.53;16.03;;;;;;;-3.92;79.33;96304.78;5089192;28;20227;-81
2022/01/13 10:06:56;;;;;;;28.97;13.97;;;;;;;-3.82;78.50;96308.41;5088357;28;20274;-83
2022/01/13 10:09:51;;;;;;;29.60;13.00;;;;;;;-3.82;78.34;96308.41;5086438;28;20227;-82
2022/01/13 10:12:24;;;;;;;25.03;10.80;;;;;;;-3.84;76.89;96301.81;5087516;28;20212;-83
2022/01/13 10:18:08;;;;;;;32.43;13.50;;;;;;;-3.53;77.22;96304.16;5073082;28;20237;-84
2022/01/13 10:20:37;;;;;;;27.43;12.93;;;;;;;-2.77;74.77;96307.09;5090700;28;20230;-82
2022/01/13 10:23:08;;;;;;;31.90;15.20;;;;;;;-2.63;73.79;96271.44;5092350;28;20200;-83
2022/01/13 10:25:39;;;;;;;29.30;13.07;;;;;;;-2.01;72.38;96285.16;5091992;28;20273;-81
2022/01/13 10:28:18;;;;;;;30.20;14.17;;;;;;;-2.13;72.23;96284.25;5092086;28;20631;-82
2022/01/13 10:30:49;;;;;;;24.33;10.63;;;;;;;-2.93;73.45;96272.44;5091932;28;20232;-82
2022/01/13 10:33:19;;;;;;;25.20;12.27;;;;;;;-3.32;76.01;96282.56;5092755;28;20584;-84
2022/01/13 10:35:51;;;;;;;30.47;11.80;;;;;;;-3.68;76.40;96277.94;5092142;28;20235;-81
2022/01/13 10:38:21;;;;;;;27.47;12.87;;;;;;;-3.64;77.84;96274.34;5092003;28;20203;-81
2022/01/13 10:40:52;;;;;;;28.40;13.00;;;;;;;-3.28;76.69;96278.91;5092397;28;20200;-81
2022/01/13 10:43:23;;;;;;;27.73;13.33;;;;;;;-2.86;75.82;96273.69;5091343;28;20287;-79
2022/01/13 10:45:54;;;;;;;26.07;12.23;;;;;;;-2.54;72.58;96265.75;5091269;28;20212;-81
2022/01/13 10:48:23;;;;;;;26.90;12.67;;;;;;;-2.25;72.36;96256.25;5087348;28;20211;-80
2022/01/13 10:50:55;;;;;;;27.03;13.50;;;;;;;-2.15;71.25;96258.06;5088136;28;20200;-82
2022/01/13 10:53:26;;;;;;;26.30;13.30;;;;;;;-1.53;70.75;96243.66;5084648;28;20208;-81
2022/01/13 10:55:56;;;;;;;34.27;15.20;;;;;;;-0.64;66.77;96236.50;5091930;28;20197;-81
2022/01/13 10:58:29;;;;;;;22.63;11.40;;;;;;;-1.19;65.44;96231.94;5088330;28;20196;-81
2022/01/13 11:00:57;;;;;;;24.63;12.37;;;;;;;-1.22;66.54;96247.47;5089143;28;20274;-82
2022/01/13 11:03:26;;;;;;;23.07;11.63;;;;;;;-1.78;68.48;96264.06;5091360;28;20237;-81
2022/01/13 11:05:57;;;;;;;25.50;12.20;;;;;;;-1.64;68.75;96263.94;5090992;28;20225;-82
2022/01/13 11:08:27;;;;;;;26.40;13.00;;;;;;;-1.92;68.78;96274.38;5087870;28;20207;-81
2022/01/13 11:10:58;;;;;;;26.73;13.23;;;;;;;-1.73;69.89;96267.13;5093564;28;20205;-82
2022/01/13 11:13:27;;;;;;;32.20;14.63;;;;;;;-0.82;67.52;96269.25;5100044;28;20588;-83
2022/01/13 11:15:56;;;;;;;29.47;14.17;;;;;;;0.04;64.79;96254.44;5090374;28;20201;-82
2022/01/13 11:18:25;;;;;;;27.27;13.43;;;;;;;1.07;61.61;96270.31;5089971;28;20637;-81
2022/01/13 11:20:55;;;;;;;29.90;14.77;;;;;;;1.74;59.53;96257.25;5089922;28;20283;-83
2022/01/13 11:23:23;;;;;;;35.00;15.93;;;;;;;1.72;59.23;96246.31;5088687;28;20741;-79
2022/01/13 11:25:53;;;;;;;25.70;12.87;;;;;;;1.32;60.01;96263.25;5090076;28;20590;-80
2022/01/13 11:28:22;;;;;;;35.03;16.23;;;;;;;1.65;59.34;96251.13;5088057;28;20288;-80
2022/01/13 11:30:52;;;;;;;28.63;14.00;;;;;;;2.44;57.24;96254.03;5089786;28;20236;-80
2022/01/13 11:33:20;;;;;;;26.50;13.00;;;;;;;2.98;55.62;96248.50;5089089;28;20552;-81
2022/01/13 11:35:55;;;;;;;23.27;11.53;;;;;;;2.51;55.29;96247.44;5090591;28;20266;-81
2022/01/13 11:38:25;;;;;;;23.97;12.00;;;;;;;2.34;56.04;96230.88;5088877;28;20196;-79
2022/01/13 11:40:54;;;;;;;21.43;11.47;;;;;;;2.54;56.43;96244.63;5089461;28;20654;-80
2022/01/13 11:43:32;;;;;;;23.77;12.67;;;;;;;2.48;56.03;96240.78;5090412;28;20203;-80